sensor_id;sensor_type;location;lat;lon;timestamp;temperature;humidity
24402;DHT22;12539;48.808;11.292;2023-01-01T00:00:57;9.80;99.90
24402;DHT22;12539;48.808;11.292;2023-01-01T00:03:22;9.80;99.90
24402;DHT22;12539;48.808;11.292;2023-01-01T00:05:48;9.80;99.90
24402;DHT22;12539;48.808;11.292;2023-01-01T00:08:14;9.80;99.90
24402;DHT22;12539;48.808;11.292;2023-01-01T00:10:39;9.80;99.90
24402;DHT22;12539;48.808;11.292;2023-01-01T00:13:05;9.70;99.90
24402;DHT22;12539;48.808;11.292;2023-01-01T00:15:31;9.70;99.90
24402;DHT22;12539;48.808;11.292;2023-01-01T00:17:57;9.80;99.90
24402;DHT22;12539;48.808;11.292;2023-01-01T00:20:23;9.80;99.90
24402;DHT22;12539;48.808;11.292;2023-01-01T00:22:49;9.80;99.90
24402;DHT22;12539;48.808;11.292;2023-01-01T00:25:15;9.80;99.90
24402;DHT22;12539;48.808;11.292;2023-01-01T00:27:42;9.80;99.90
24402;DHT22;12539;48.808;11.292;2023-01-01T00:30:09;9.80;99.90
24402;DHT22;12539;48.808;11.292;2023-01-01T00:32:35;9.70;99.90
24402;DHT22;12539;48.808;11.292;2023-01-01T00:35:00;9.70;99.90
24402;DHT22;12539;48.808;11.292;2023-01-01T00:37:27;9.60;99.90
24402;DHT22;12539;48.808;11.292;2023-01-01T00:39:52;9.50;99.90
24402;DHT22;12539;48.808;11.292;2023-01-01T00:42:18;9.40;99.90
24402;DHT22;12539;48.808;11.292;2023-01-01T00:44:44;9.40;99.90
24402;DHT22;12539;48.808;11.292;2023-01-01T00:47:09;9.40;99.90
24402;DHT22;12539;48.808;11.292;2023-01-01T00:49:35;9.40;99.90
24402;DHT22;12539;48.808;11.292;2023-01-01T00:52:00;9.40;99.90
24402;DHT22;12539;48.808;11.292;2023-01-01T00:54:26;9.40;99.90
24402;DHT22;12539;48.808;11.292;2023-01-01T00:56:52;9.40;99.90
24402;DHT22;12539;48.808;11.292;2023-01-01T00:59:18;9.40;99.90
24402;DHT22;12539;48.808;11.292;2023-01-01T01:01:43;9.40;99.90
24402;DHT22;12539;48.808;11.292;2023-01-01T01:04:09;9.40;99.90
24402;DHT22;12539;48.808;11.292;2023-01-01T01:06:35;9.40;99.90
24402;DHT22;12539;48.808;11.292;2023-01-01T01:09:11;9.40;99.90
24402;DHT22;12539;48.808;11.292;2023-01-01T01:11:36;9.30;99.90
24402;DHT22;12539;48.808;11.292;2023-01-01T01:14:02;9.30;99.90
24402;DHT22;12539;48.808;11.292;2023-01-01T01:16:33;9.30;99.90
24402;DHT22;12539;48.808;11.292;2023-01-01T01:18:59;9.30;99.90
24402;DHT22;12539;48.808;11.292;2023-01-01T01:21:27;9.40;99.90
24402;DHT22;12539;48.808;11.292;2023-01-01T01:23:55;9.30;99.90
24402;DHT22;12539;48.808;11.292;2023-01-01T01:26:23;9.30;99.90
24402;DHT22;12539;48.808;11.292;2023-01-01T01:28:50;9.40;99.90
24402;DHT22;12539;48.808;11.292;2023-01-01T01:31:17;9.40;99.90
24402;DHT22;12539;48.808;11.292;2023-01-01T01:33:44;9.40;99.90
24402;DHT22;12539;48.808;11.292;2023-01-01T01:36:11;9.30;99.90
24402;DHT22;12539;48.808;11.292;2023-01-01T01:38:36;9.20;99.90
24402;DHT22;12539;48.808;11.292;2023-01-01T01:41:03;9.10;99.90
24402;DHT22;12539;48.808;11.292;2023-01-01T01:46:06;9.10;99.90
24402;DHT22;12539;48.808;11.292;2023-01-01T01:48:47;9.10;99.90
24402;DHT22;12539;48.808;11.292;2023-01-01T01:51:17;9.10;99.90
24402;DHT22;12539;48.808;11.292;2023-01-01T01:53:48;9.10;99.90
24402;DHT22;12539;48.808;11.292;2023-01-01T01:56:19;9.20;99.90
24402;DHT22;12539;48.808;11.292;2023-01-01T01:58:46;9.20;99.90
24402;DHT22;12539;48.808;11.292;2023-01-01T02:01:12;9.20;99.90
24402;DHT22;12539;48.808;11.292;2023-01-01T02:03:58;9.20;99.90
24402;DHT22;12539;48.808;11.292;2023-01-01T02:06:25;9.20;99.90
24402;DHT22;12539;48.808;11.292;2023-01-01T02:08:52;9.20;99.90
24402;DHT22;12539;48.808;11.292;2023-01-01T02:11:18;9.30;99.90
24402;DHT22;12539;48.808;11.292;2023-01-01T02:13:44;9.20;99.90
24402;DHT22;12539;48.808;11.292;2023-01-01T02:19:11;9.20;99.90
24402;DHT22;12539;48.808;11.292;2023-01-01T02:25:04;9.20;99.90
24402;DHT22;12539;48.808;11.292;2023-01-01T02:30:59;9.20;99.90
24402;DHT22;12539;48.808;11.292;2023-01-01T02:33:26;9.20;99.90
24402;DHT22;12539;48.808;11.292;2023-01-01T02:35:57;9.20;99.90
24402;DHT22;12539;48.808;11.292;2023-01-01T02:38:36;9.20;99.90
24402;DHT22;12539;48.808;11.292;2023-01-01T02:41:08;9.30;99.90
24402;DHT22;12539;48.808;11.292;2023-01-01T02:43:36;9.20;99.90
24402;DHT22;12539;48.808;11.292;2023-01-01T02:46:07;9.30;99.90
24402;DHT22;12539;48.808;11.292;2023-01-01T02:48:49;9.30;99.90
24402;DHT22;12539;48.808;11.292;2023-01-01T02:57:00;9.30;99.90
24402;DHT22;12539;48.808;11.292;2023-01-01T03:05:24;9.30;99.90
24402;DHT22;12539;48.808;11.292;2023-01-01T03:08:05;9.30;99.90
24402;DHT22;12539;48.808;11.292;2023-01-01T03:13:30;9.30;99.90
24402;DHT22;12539;48.808;11.292;2023-01-01T03:21:09;9.20;99.90
24402;DHT22;12539;48.808;11.292;2023-01-01T03:23:42;9.10;99.90
24402;DHT22;12539;48.808;11.292;2023-01-01T03:26:12;9.10;99.90
24402;DHT22;12539;48.808;11.292;2023-01-01T03:28:46;9.10;99.90
24402;DHT22;12539;48.808;11.292;2023-01-01T03:31:16;9.00;99.90
24402;DHT22;12539;48.808;11.292;2023-01-01T03:33:46;9.00;99.90
24402;DHT22;12539;48.808;11.292;2023-01-01T03:36:21;9.10;99.90
24402;DHT22;12539;48.808;11.292;2023-01-01T03:38:51;9.00;99.90
24402;DHT22;12539;48.808;11.292;2023-01-01T03:41:41;9.00;99.90
24402;DHT22;12539;48.808;11.292;2023-01-01T03:46:49;9.00;99.90
24402;DHT22;12539;48.808;11.292;2023-01-01T03:49:15;9.00;99.90
24402;DHT22;12539;48.808;11.292;2023-01-01T04:05:25;8.70;99.90
24402;DHT22;12539;48.808;11.292;2023-01-01T04:07:52;8.50;99.90
24402;DHT22;12539;48.808;11.292;2023-01-01T04:10:18;8.50;99.90
24402;DHT22;12539;48.808;11.292;2023-01-01T04:12:56;8.40;99.90
24402;DHT22;12539;48.808;11.292;2023-01-01T04:15:24;8.40;99.90
24402;DHT22;12539;48.808;11.292;2023-01-01T04:17:51;8.40;99.90
24402;DHT22;12539;48.808;11.292;2023-01-01T04:20:17;8.40;99.90
24402;DHT22;12539;48.808;11.292;2023-01-01T04:22:43;8.40;99.90
24402;DHT22;12539;48.808;11.292;2023-01-01T04:25:10;8.50;99.90
24402;DHT22;12539;48.808;11.292;2023-01-01T04:27:36;8.60;99.90
24402;DHT22;12539;48.808;11.292;2023-01-01T04:30:08;8.60;99.90
24402;DHT22;12539;48.808;11.292;2023-01-01T04:32:34;8.60;99.90
24402;DHT22;12539;48.808;11.292;2023-01-01T04:35:00;8.70;99.90
24402;DHT22;12539;48.808;11.292;2023-01-01T04:37:26;8.70;99.90
24402;DHT22;12539;48.808;11.292;2023-01-01T04:39:51;8.60;99.90
24402;DHT22;12539;48.808;11.292;2023-01-01T04:42:17;8.70;99.90
24402;DHT22;12539;48.808;11.292;2023-01-01T04:44:43;8.70;99.90
24402;DHT22;12539;48.808;11.292;2023-01-01T04:47:09;8.60;99.90
24402;DHT22;12539;48.808;11.292;2023-01-01T04:49:35;8.60;99.90
24402;DHT22;12539;48.808;11.292;2023-01-01T04:52:01;8.60;99.90
24402;DHT22;12539;48.808;11.292;2023-01-01T04:54:27;8.50;99.90
24402;DHT22;12539;48.808;11.292;2023-01-01T04:56:53;8.40;99.90
24402;DHT22;12539;48.808;11.292;2023-01-01T04:59:19;8.40;99.90
24402;DHT22;12539;48.808;11.292;2023-01-01T05:01:44;8.40;99.90
24402;DHT22;12539;48.808;11.292;2023-01-01T05:04:12;8.40;99.90
24402;DHT22;12539;48.808;11.292;2023-01-01T05:06:38;8.40;99.90
24402;DHT22;12539;48.808;11.292;2023-01-01T05:09:03;8.50;99.90
24402;DHT22;12539;48.808;11.292;2023-01-01T05:11:30;8.50;99.90
24402;DHT22;12539;48.808;11.292;2023-01-01T05:13:58;8.50;99.90
24402;DHT22;12539;48.808;11.292;2023-01-01T05:16:26;8.40;99.90
24402;DHT22;12539;48.808;11.292;2023-01-01T05:18:52;8.40;99.90
24402;DHT22;12539;48.808;11.292;2023-01-01T05:21:20;8.30;99.90
24402;DHT22;12539;48.808;11.292;2023-01-01T05:23:46;8.20;99.90
24402;DHT22;12539;48.808;11.292;2023-01-01T05:26:18;8.20;99.90
24402;DHT22;12539;48.808;11.292;2023-01-01T05:28:44;8.10;99.90
24402;DHT22;12539;48.808;11.292;2023-01-01T05:31:13;8.00;99.90
24402;DHT22;12539;48.808;11.292;2023-01-01T05:33:39;8.00;99.90
24402;DHT22;12539;48.808;11.292;2023-01-01T05:36:07;7.90;99.90
24402;DHT22;12539;48.808;11.292;2023-01-01T05:38:34;7.90;99.90
24402;DHT22;12539;48.808;11.292;2023-01-01T05:41:08;7.70;99.90
24402;DHT22;12539;48.808;11.292;2023-01-01T05:43:34;7.80;99.90
24402;DHT22;12539;48.808;11.292;2023-01-01T05:46:05;7.80;99.90
24402;DHT22;12539;48.808;11.292;2023-01-01T05:48:32;7.90;99.90
24402;DHT22;12539;48.808;11.292;2023-01-01T05:51:15;8.00;99.90
24402;DHT22;12539;48.808;11.292;2023-01-01T05:53:42;8.10;99.90
24402;DHT22;12539;48.808;11.292;2023-01-01T05:56:09;8.30;99.90
24402;DHT22;12539;48.808;11.292;2023-01-01T05:58:35;8.30;99.90
24402;DHT22;12539;48.808;11.292;2023-01-01T06:01:21;8.40;99.90
24402;DHT22;12539;48.808;11.292;2023-01-01T06:03:47;8.40;99.90
24402;DHT22;12539;48.808;11.292;2023-01-01T06:06:16;8.40;99.90
24402;DHT22;12539;48.808;11.292;2023-01-01T06:08:47;8.40;99.90
24402;DHT22;12539;48.808;11.292;2023-01-01T06:11:12;8.40;99.90
24402;DHT22;12539;48.808;11.292;2023-01-01T06:13:38;8.50;99.90
24402;DHT22;12539;48.808;11.292;2023-01-01T06:16:04;8.50;99.90
24402;DHT22;12539;48.808;11.292;2023-01-01T06:18:32;8.40;99.90
24402;DHT22;12539;48.808;11.292;2023-01-01T06:21:09;8.40;99.90
24402;DHT22;12539;48.808;11.292;2023-01-01T06:23:36;8.40;99.90
24402;DHT22;12539;48.808;11.292;2023-01-01T06:26:10;8.30;99.90
24402;DHT22;12539;48.808;11.292;2023-01-01T06:28:36;8.30;99.90
24402;DHT22;12539;48.808;11.292;2023-01-01T06:31:04;8.30;99.90
24402;DHT22;12539;48.808;11.292;2023-01-01T06:33:31;8.30;99.90
24402;DHT22;12539;48.808;11.292;2023-01-01T06:35:57;8.30;99.90
24402;DHT22;12539;48.808;11.292;2023-01-01T06:38:23;8.30;99.90
24402;DHT22;12539;48.808;11.292;2023-01-01T06:41:02;8.40;99.90
24402;DHT22;12539;48.808;11.292;2023-01-01T06:43:30;8.30;99.90
24402;DHT22;12539;48.808;11.292;2023-01-01T06:48:35;8.30;99.90
24402;DHT22;12539;48.808;11.292;2023-01-01T06:51:12;8.30;99.90
24402;DHT22;12539;48.808;11.292;2023-01-01T06:53:38;8.30;99.90
24402;DHT22;12539;48.808;11.292;2023-01-01T06:56:04;8.20;99.90
24402;DHT22;12539;48.808;11.292;2023-01-01T06:58:31;8.20;99.90
24402;DHT22;12539;48.808;11.292;2023-01-01T07:01:11;8.20;99.90
24402;DHT22;12539;48.808;11.292;2023-01-01T07:03:37;8.10;99.90
24402;DHT22;12539;48.808;11.292;2023-01-01T07:06:04;8.10;99.90
24402;DHT22;12539;48.808;11.292;2023-01-01T07:08:30;8.00;99.90
24402;DHT22;12539;48.808;11.292;2023-01-01T07:10:56;8.00;99.90
24402;DHT22;12539;48.808;11.292;2023-01-01T07:13:26;8.10;99.90
24402;DHT22;12539;48.808;11.292;2023-01-01T07:15:52;8.00;99.90
24402;DHT22;12539;48.808;11.292;2023-01-01T07:18:19;8.00;99.90
24402;DHT22;12539;48.808;11.292;2023-01-01T07:20:56;8.00;99.90
24402;DHT22;12539;48.808;11.292;2023-01-01T07:23:24;8.10;99.90
24402;DHT22;12539;48.808;11.292;2023-01-01T07:25:51;8.10;99.90
24402;DHT22;12539;48.808;11.292;2023-01-01T07:28:18;8.10;99.90
24402;DHT22;12539;48.808;11.292;2023-01-01T07:30:43;8.10;99.90
24402;DHT22;12539;48.808;11.292;2023-01-01T07:33:11;8.10;99.90
24402;DHT22;12539;48.808;11.292;2023-01-01T07:35:37;8.10;99.90
24402;DHT22;12539;48.808;11.292;2023-01-01T07:38:03;8.20;99.90
24402;DHT22;12539;48.808;11.292;2023-01-01T07:40:28;8.20;99.90
24402;DHT22;12539;48.808;11.292;2023-01-01T07:42:54;8.30;99.90
24402;DHT22;12539;48.808;11.292;2023-01-01T07:45:19;8.30;99.90
24402;DHT22;12539;48.808;11.292;2023-01-01T07:47:50;8.40;99.90
24402;DHT22;12539;48.808;11.292;2023-01-01T07:50:18;8.40;99.90
24402;DHT22;12539;48.808;11.292;2023-01-01T07:52:43;8.50;99.90
24402;DHT22;12539;48.808;11.292;2023-01-01T07:55:14;8.50;99.90
24402;DHT22;12539;48.808;11.292;2023-01-01T07:57:41;8.50;99.90
24402;DHT22;12539;48.808;11.292;2023-01-01T08:00:08;8.60;99.90
24402;DHT22;12539;48.808;11.292;2023-01-01T08:02:34;8.60;99.90
24402;DHT22;12539;48.808;11.292;2023-01-01T08:05:00;8.70;99.90
24402;DHT22;12539;48.808;11.292;2023-01-01T08:07:25;8.70;99.90
24402;DHT22;12539;48.808;11.292;2023-01-01T08:09:51;8.70;99.90
24402;DHT22;12539;48.808;11.292;2023-01-01T08:12:17;8.70;99.90
24402;DHT22;12539;48.808;11.292;2023-01-01T08:14:42;8.70;99.90
24402;DHT22;12539;48.808;11.292;2023-01-01T08:17:08;8.70;99.90
24402;DHT22;12539;48.808;11.292;2023-01-01T08:19:34;8.70;99.90
24402;DHT22;12539;48.808;11.292;2023-01-01T08:21:59;8.70;99.90
24402;DHT22;12539;48.808;11.292;2023-01-01T08:24:25;8.70;99.90
24402;DHT22;12539;48.808;11.292;2023-01-01T08:26:50;8.80;99.90
24402;DHT22;12539;48.808;11.292;2023-01-01T08:29:16;8.90;99.90
24402;DHT22;12539;48.808;11.292;2023-01-01T08:31:42;8.90;99.90
24402;DHT22;12539;48.808;11.292;2023-01-01T08:34:08;9.00;99.90
24402;DHT22;12539;48.808;11.292;2023-01-01T08:36:35;9.00;99.90
24402;DHT22;12539;48.808;11.292;2023-01-01T08:39:00;9.10;99.90
24402;DHT22;12539;48.808;11.292;2023-01-01T08:41:26;9.20;99.90
24402;DHT22;12539;48.808;11.292;2023-01-01T08:43:52;9.20;99.90
24402;DHT22;12539;48.808;11.292;2023-01-01T08:46:18;9.30;99.90
24402;DHT22;12539;48.808;11.292;2023-01-01T08:48:43;9.30;99.90
24402;DHT22;12539;48.808;11.292;2023-01-01T08:51:09;9.40;99.90
24402;DHT22;12539;48.808;11.292;2023-01-01T08:53:35;9.40;99.90
24402;DHT22;12539;48.808;11.292;2023-01-01T08:56:06;9.40;99.90
24402;DHT22;12539;48.808;11.292;2023-01-01T08:58:35;9.50;99.90
24402;DHT22;12539;48.808;11.292;2023-01-01T09:01:01;9.60;99.90
24402;DHT22;12539;48.808;11.292;2023-01-01T09:03:27;9.70;99.90
24402;DHT22;12539;48.808;11.292;2023-01-01T09:05:53;9.80;99.90
24402;DHT22;12539;48.808;11.292;2023-01-01T09:08:19;9.90;99.90
24402;DHT22;12539;48.808;11.292;2023-01-01T09:10:45;9.90;99.90
24402;DHT22;12539;48.808;11.292;2023-01-01T09:13:13;10.10;99.90
24402;DHT22;12539;48.808;11.292;2023-01-01T09:15:39;10.10;99.90
24402;DHT22;12539;48.808;11.292;2023-01-01T09:18:06;10.20;99.90
24402;DHT22;12539;48.808;11.292;2023-01-01T09:20:31;10.30;99.90
24402;DHT22;12539;48.808;11.292;2023-01-01T09:22:57;10.40;99.90
24402;DHT22;12539;48.808;11.292;2023-01-01T09:25:23;10.50;99.90
24402;DHT22;12539;48.808;11.292;2023-01-01T09:27:48;10.60;99.90
24402;DHT22;12539;48.808;11.292;2023-01-01T09:30:14;10.60;99.90
24402;DHT22;12539;48.808;11.292;2023-01-01T09:32:40;10.60;99.90
24402;DHT22;12539;48.808;11.292;2023-01-01T09:35:06;10.70;99.90
24402;DHT22;12539;48.808;11.292;2023-01-01T09:37:31;10.80;99.90
24402;DHT22;12539;48.808;11.292;2023-01-01T09:39:58;10.80;99.90
24402;DHT22;12539;48.808;11.292;2023-01-01T09:42:44;10.90;99.90
24402;DHT22;12539;48.808;11.292;2023-01-01T09:45:24;10.90;99.90
24402;DHT22;12539;48.808;11.292;2023-01-01T09:48:05;11.00;99.90
24402;DHT22;12539;48.808;11.292;2023-01-01T09:50:37;11.10;99.90
24402;DHT22;12539;48.808;11.292;2023-01-01T09:53:29;11.10;99.90
24402;DHT22;12539;48.808;11.292;2023-01-01T09:56:00;11.10;99.90
24402;DHT22;12539;48.808;11.292;2023-01-01T09:58:32;11.20;99.90
24402;DHT22;12539;48.808;11.292;2023-01-01T10:07:13;11.30;99.90
24402;DHT22;12539;48.808;11.292;2023-01-01T10:14:53;11.30;99.90
24402;DHT22;12539;48.808;11.292;2023-01-01T10:17:52;11.40;99.90
24402;DHT22;12539;48.808;11.292;2023-01-01T10:20:35;11.40;99.90
24402;DHT22;12539;48.808;11.292;2023-01-01T10:23:27;11.40;99.90
24402;DHT22;12539;48.808;11.292;2023-01-01T10:25:57;11.40;99.90
24402;DHT22;12539;48.808;11.292;2023-01-01T10:28:38;11.40;99.90
24402;DHT22;12539;48.808;11.292;2023-01-01T10:33:41;11.50;99.90
24402;DHT22;12539;48.808;11.292;2023-01-01T10:36:10;11.50;99.90
24402;DHT22;12539;48.808;11.292;2023-01-01T10:38:38;11.60;99.90
24402;DHT22;12539;48.808;11.292;2023-01-01T10:41:09;11.60;99.90
24402;DHT22;12539;48.808;11.292;2023-01-01T10:43:35;11.70;99.90
24402;DHT22;12539;48.808;11.292;2023-01-01T10:46:02;11.70;99.90
24402;DHT22;12539;48.808;11.292;2023-01-01T10:48:30;11.80;99.90
24402;DHT22;12539;48.808;11.292;2023-01-01T10:50:57;11.90;99.90
24402;DHT22;12539;48.808;11.292;2023-01-01T10:53:27;11.90;99.90
24402;DHT22;12539;48.808;11.292;2023-01-01T10:56:17;12.00;99.90
24402;DHT22;12539;48.808;11.292;2023-01-01T10:58:56;12.10;99.90
24402;DHT22;12539;48.808;11.292;2023-01-01T11:01:30;12.20;99.90
24402;DHT22;12539;48.808;11.292;2023-01-01T11:04:19;12.30;99.90
24402;DHT22;12539;48.808;11.292;2023-01-01T11:06:46;12.50;99.90
24402;DHT22;12539;48.808;11.292;2023-01-01T11:09:27;12.60;99.90
24402;DHT22;12539;48.808;11.292;2023-01-01T11:12:05;12.70;99.90
24402;DHT22;12539;48.808;11.292;2023-01-01T11:14:37;12.80;99.90
24402;DHT22;12539;48.808;11.292;2023-01-01T11:17:05;12.90;99.90
24402;DHT22;12539;48.808;11.292;2023-01-01T11:19:35;13.00;99.90
24402;DHT22;12539;48.808;11.292;2023-01-01T11:22:02;13.10;99.90
24402;DHT22;12539;48.808;11.292;2023-01-01T11:24:32;13.10;99.90
24402;DHT22;12539;48.808;11.292;2023-01-01T11:27:21;13.20;99.90
24402;DHT22;12539;48.808;11.292;2023-01-01T11:29:48;13.30;99.90
24402;DHT22;12539;48.808;11.292;2023-01-01T11:32:19;13.40;99.90
24402;DHT22;12539;48.808;11.292;2023-01-01T11:34:46;13.50;99.90
24402;DHT22;12539;48.808;11.292;2023-01-01T11:37:34;13.60;99.90
24402;DHT22;12539;48.808;11.292;2023-01-01T11:40:18;13.70;99.90
24402;DHT22;12539;48.808;11.292;2023-01-01T11:42:47;13.80;99.90
24402;DHT22;12539;48.808;11.292;2023-01-01T11:45:17;13.80;99.90
24402;DHT22;12539;48.808;11.292;2023-01-01T11:47:43;13.90;99.90
24402;DHT22;12539;48.808;11.292;2023-01-01T11:52:50;14.10;99.90
24402;DHT22;12539;48.808;11.292;2023-01-01T11:55:39;14.20;99.90
24402;DHT22;12539;48.808;11.292;2023-01-01T12:00:37;14.30;99.90
24402;DHT22;12539;48.808;11.292;2023-01-01T12:03:13;14.40;99.90
24402;DHT22;12539;48.808;11.292;2023-01-01T12:05:57;14.40;99.90
24402;DHT22;12539;48.808;11.292;2023-01-01T12:08:36;14.40;99.90
24402;DHT22;12539;48.808;11.292;2023-01-01T12:11:29;14.50;99.90
24402;DHT22;12539;48.808;11.292;2023-01-01T12:14:02;14.50;99.90
24402;DHT22;12539;48.808;11.292;2023-01-01T12:16:59;14.50;99.90
24402;DHT22;12539;48.808;11.292;2023-01-01T12:22:16;14.50;99.90
24402;DHT22;12539;48.808;11.292;2023-01-01T12:24:43;14.60;99.90
24402;DHT22;12539;48.808;11.292;2023-01-01T12:30:01;14.60;99.90
24402;DHT22;12539;48.808;11.292;2023-01-01T12:40:42;14.80;99.90
24402;DHT22;12539;48.808;11.292;2023-01-01T12:54:33;14.70;99.90
24402;DHT22;12539;48.808;11.292;2023-01-01T12:59:46;14.70;99.90
24402;DHT22;12539;48.808;11.292;2023-01-01T13:02:22;14.60;99.90
24402;DHT22;12539;48.808;11.292;2023-01-01T13:04:52;14.60;99.90
24402;DHT22;12539;48.808;11.292;2023-01-01T13:07:27;14.70;99.90
24402;DHT22;12539;48.808;11.292;2023-01-01T13:09:55;14.70;99.90
24402;DHT22;12539;48.808;11.292;2023-01-01T13:12:24;14.70;99.90
24402;DHT22;12539;48.808;11.292;2023-01-01T13:14:50;14.70;99.90
24402;DHT22;12539;48.808;11.292;2023-01-01T13:17:24;14.70;99.90
24402;DHT22;12539;48.808;11.292;2023-01-01T13:19:57;14.70;99.90
24402;DHT22;12539;48.808;11.292;2023-01-01T13:33:24;14.70;99.90
24402;DHT22;12539;48.808;11.292;2023-01-01T13:41:32;14.60;99.90
24402;DHT22;12539;48.808;11.292;2023-01-01T14:00:24;14.50;99.90
24402;DHT22;12539;48.808;11.292;2023-01-01T14:05:31;14.50;99.90
24402;DHT22;12539;48.808;11.292;2023-01-01T14:07:57;14.40;99.90
24402;DHT22;12539;48.808;11.292;2023-01-01T14:12:56;14.40;99.90
24402;DHT22;12539;48.808;11.292;2023-01-01T14:15:31;14.40;99.90
24402;DHT22;12539;48.808;11.292;2023-01-01T14:17:59;14.40;99.90
24402;DHT22;12539;48.808;11.292;2023-01-01T14:20:52;14.40;99.90
24402;DHT22;12539;48.808;11.292;2023-01-01T14:23:41;14.30;99.90
24402;DHT22;12539;48.808;11.292;2023-01-01T14:26:12;14.30;99.90
24402;DHT22;12539;48.808;11.292;2023-01-01T14:28:39;14.20;99.90
24402;DHT22;12539;48.808;11.292;2023-01-01T14:31:10;14.10;99.90
24402;DHT22;12539;48.808;11.292;2023-01-01T14:33:37;14.10;99.90
24402;DHT22;12539;48.808;11.292;2023-01-01T14:36:12;14.10;99.90
24402;DHT22;12539;48.808;11.292;2023-01-01T14:38:43;14.10;99.90
24402;DHT22;12539;48.808;11.292;2023-01-01T14:41:14;14.00;99.90
24402;DHT22;12539;48.808;11.292;2023-01-01T14:43:43;14.00;99.90
24402;DHT22;12539;48.808;11.292;2023-01-01T14:46:14;14.00;99.90
24402;DHT22;12539;48.808;11.292;2023-01-01T14:48:46;14.00;99.90
24402;DHT22;12539;48.808;11.292;2023-01-01T14:51:14;13.90;99.90
24402;DHT22;12539;48.808;11.292;2023-01-01T14:53:41;13.90;99.90
24402;DHT22;12539;48.808;11.292;2023-01-01T14:56:08;13.80;99.90
24402;DHT22;12539;48.808;11.292;2023-01-01T14:58:34;13.80;99.90
24402;DHT22;12539;48.808;11.292;2023-01-01T15:01:24;13.70;99.90
24402;DHT22;12539;48.808;11.292;2023-01-01T15:04:04;13.70;99.90
24402;DHT22;12539;48.808;11.292;2023-01-01T15:06:39;13.60;99.90
24402;DHT22;12539;48.808;11.292;2023-01-01T15:09:05;13.60;99.90
24402;DHT22;12539;48.808;11.292;2023-01-01T15:11:31;13.50;99.90
24402;DHT22;12539;48.808;11.292;2023-01-01T15:13:59;13.40;99.90
24402;DHT22;12539;48.808;11.292;2023-01-01T15:16:26;13.40;99.90
24402;DHT22;12539;48.808;11.292;2023-01-01T15:18:52;13.30;99.90
24402;DHT22;12539;48.808;11.292;2023-01-01T15:24:11;13.20;99.90
24402;DHT22;12539;48.808;11.292;2023-01-01T15:26:49;13.10;99.90
24402;DHT22;12539;48.808;11.292;2023-01-01T15:29:23;13.00;99.90
24402;DHT22;12539;48.808;11.292;2023-01-01T15:31:54;12.90;99.90
24402;DHT22;12539;48.808;11.292;2023-01-01T15:36:47;12.70;99.90
24402;DHT22;12539;48.808;11.292;2023-01-01T15:39:14;12.60;99.90
24402;DHT22;12539;48.808;11.292;2023-01-01T15:41:50;12.50;99.90
24402;DHT22;12539;48.808;11.292;2023-01-01T15:44:20;12.40;99.90
24402;DHT22;12539;48.808;11.292;2023-01-01T15:46:49;12.30;99.90
24402;DHT22;12539;48.808;11.292;2023-01-01T15:49:28;12.30;99.90
24402;DHT22;12539;48.808;11.292;2023-01-01T15:52:00;12.20;99.90
24402;DHT22;12539;48.808;11.292;2023-01-01T15:54:28;12.10;99.90
24402;DHT22;12539;48.808;11.292;2023-01-01T15:56:54;12.00;99.90
24402;DHT22;12539;48.808;11.292;2023-01-01T15:59:32;11.90;99.90
24402;DHT22;12539;48.808;11.292;2023-01-01T16:02:15;11.80;99.90
24402;DHT22;12539;48.808;11.292;2023-01-01T16:04:46;11.70;99.90
24402;DHT22;12539;48.808;11.292;2023-01-01T16:07:19;11.70;99.90
24402;DHT22;12539;48.808;11.292;2023-01-01T16:09:46;11.70;99.90
24402;DHT22;12539;48.808;11.292;2023-01-01T16:12:12;11.70;99.90
24402;DHT22;12539;48.808;11.292;2023-01-01T16:14:37;11.80;99.90
24402;DHT22;12539;48.808;11.292;2023-01-01T16:17:03;11.80;99.90
24402;DHT22;12539;48.808;11.292;2023-01-01T16:19:30;11.80;99.90
24402;DHT22;12539;48.808;11.292;2023-01-01T16:21:57;11.80;99.90
24402;DHT22;12539;48.808;11.292;2023-01-01T16:24:23;11.80;99.90
24402;DHT22;12539;48.808;11.292;2023-01-01T16:26:51;11.80;99.90
24402;DHT22;12539;48.808;11.292;2023-01-01T16:29:16;11.90;99.90
24402;DHT22;12539;48.808;11.292;2023-01-01T16:31:42;11.90;99.90
24402;DHT22;12539;48.808;11.292;2023-01-01T16:34:12;11.90;99.90
24402;DHT22;12539;48.808;11.292;2023-01-01T16:36:38;12.00;99.90
24402;DHT22;12539;48.808;11.292;2023-01-01T16:39:03;11.90;99.90
24402;DHT22;12539;48.808;11.292;2023-01-01T16:41:29;11.90;99.90
24402;DHT22;12539;48.808;11.292;2023-01-01T16:43:55;11.90;99.90
24402;DHT22;12539;48.808;11.292;2023-01-01T16:46:20;11.90;99.90
24402;DHT22;12539;48.808;11.292;2023-01-01T16:48:46;11.90;99.90
24402;DHT22;12539;48.808;11.292;2023-01-01T16:51:22;11.90;99.90
24402;DHT22;12539;48.808;11.292;2023-01-01T16:53:48;11.90;99.90
24402;DHT22;12539;48.808;11.292;2023-01-01T16:56:14;11.90;99.90
24402;DHT22;12539;48.808;11.292;2023-01-01T16:58:40;11.90;99.90
24402;DHT22;12539;48.808;11.292;2023-01-01T17:01:06;11.90;99.90
24402;DHT22;12539;48.808;11.292;2023-01-01T17:03:33;11.90;99.90
24402;DHT22;12539;48.808;11.292;2023-01-01T17:06:02;11.90;99.90
24402;DHT22;12539;48.808;11.292;2023-01-01T17:08:29;11.90;99.90
24402;DHT22;12539;48.808;11.292;2023-01-01T17:11:12;11.90;99.90
24402;DHT22;12539;48.808;11.292;2023-01-01T17:13:40;11.90;99.90
24402;DHT22;12539;48.808;11.292;2023-01-01T17:16:06;11.80;99.90
24402;DHT22;12539;48.808;11.292;2023-01-01T17:18:32;11.80;99.90
24402;DHT22;12539;48.808;11.292;2023-01-01T17:21:05;11.70;99.90
24402;DHT22;12539;48.808;11.292;2023-01-01T17:23:35;11.70;99.90
24402;DHT22;12539;48.808;11.292;2023-01-01T17:26:10;11.70;99.90
24402;DHT22;12539;48.808;11.292;2023-01-01T17:28:36;11.70;99.90
24402;DHT22;12539;48.808;11.292;2023-01-01T17:31:06;11.60;99.90
24402;DHT22;12539;48.808;11.292;2023-01-01T17:33:33;11.60;99.90
24402;DHT22;12539;48.808;11.292;2023-01-01T17:35:59;11.50;99.90
24402;DHT22;12539;48.808;11.292;2023-01-01T17:38:25;11.50;99.90
24402;DHT22;12539;48.808;11.292;2023-01-01T17:40:52;11.50;99.90
24402;DHT22;12539;48.808;11.292;2023-01-01T17:43:18;11.50;99.90
24402;DHT22;12539;48.808;11.292;2023-01-01T17:45:43;11.50;99.90
24402;DHT22;12539;48.808;11.292;2023-01-01T17:48:09;11.40;99.90
24402;DHT22;12539;48.808;11.292;2023-01-01T17:50:35;11.40;99.90
24402;DHT22;12539;48.808;11.292;2023-01-01T17:53:00;11.40;99.90
24402;DHT22;12539;48.808;11.292;2023-01-01T17:55:26;11.30;99.90
24402;DHT22;12539;48.808;11.292;2023-01-01T17:57:53;11.30;99.90
24402;DHT22;12539;48.808;11.292;2023-01-01T18:00:19;11.30;99.90